Time;durP1;ratioP1;P1;durP2;ratioP2;P2;SDS_P1;SDS_P2;PMS_P1;PMS_P2;Temp;Humidity;BMP_temperature;BMP_pressure;BME280_temperature;BME280_humidity;BME280_pressure;Samples;Min_cycle;Max_cycle;Signal;HPM_P1;HPM_P2
2022/10/26 00:00:46;;;;;;;6.20;2.40;;;15.30;99.90;;;;;;5052862;28;20403;-71
2022/10/26 00:03:12;;;;;;;8.90;3.40;;;15.40;99.90;;;;;;5051510;28;20894;-72
2022/10/26 00:05:38;;;;;;;2.77;2.17;;;15.40;99.90;;;;;;5052748;28;20811;-72
2022/10/26 00:08:04;;;;;;;3.23;2.50;;;15.40;99.90;;;;;;5051486;28;20460;-72
2022/10/26 00:10:32;;;;;;;4.50;2.87;;;15.40;99.90;;;;;;5052469;28;20405;-72
2022/10/26 00:12:58;;;;;;;4.23;2.40;;;15.20;99.90;;;;;;5051968;28;20454;-72
2022/10/26 00:15:23;;;;;;;3.63;2.17;;;15.20;99.90;;;;;;5033903;28;20443;-72
2022/10/26 00:17:49;;;;;;;4.43;2.40;;;15.20;99.90;;;;;;5051648;28;20612;-72
2022/10/26 00:20:15;;;;;;;5.77;2.50;;;15.20;99.90;;;;;;5051852;28;20177;-71
2022/10/26 00:22:41;;;;;;;4.10;2.30;;;15.30;99.90;;;;;;5052698;28;20412;-71
2022/10/26 00:25:07;;;;;;;5.93;2.20;;;15.40;99.90;;;;;;5051473;28;20268;-71
2022/10/26 00:27:33;;;;;;;9.10;2.50;;;15.30;99.90;;;;;;5052206;28;20207;-70
2022/10/26 00:29:59;;;;;;;5.43;2.80;;;15.40;99.90;;;;;;5052189;28;20744;-71
2022/10/26 00:32:25;;;;;;;3.90;2.23;;;15.40;99.90;;;;;;5052281;28;20458;-71
2022/10/26 00:34:51;;;;;;;4.30;2.80;;;15.40;99.90;;;;;;5051938;28;20402;-71
2022/10/26 00:37:16;;;;;;;4.43;2.33;;;15.40;99.90;;;;;;5051037;28;20208;-70
2022/10/26 00:39:42;;;;;;;3.60;2.33;;;15.30;99.90;;;;;;5052429;28;20257;-71
2022/10/26 00:42:14;;;;;;;4.77;2.40;;;15.30;99.90;;;;;;5051555;28;20189;-71
2022/10/26 00:44:45;;;;;;;3.70;2.27;;;15.20;99.90;;;;;;5051488;28;20165;-70
2022/10/26 00:47:18;;;;;;;5.40;2.53;;;15.20;99.90;;;;;;5051285;28;20498;-70
2022/10/26 00:49:48;;;;;;;3.70;2.30;;;15.20;99.90;;;;;;5049940;28;20515;-71
2022/10/26 00:52:15;;;;;;;4.33;2.43;;;15.20;99.90;;;;;;5047760;28;20933;-70
2022/10/26 00:54:42;;;;;;;4.93;2.33;;;15.30;99.90;;;;;;5050780;28;20443;-70
2022/10/26 00:57:09;;;;;;;3.93;2.10;;;15.40;99.90;;;;;;5051510;28;20515;-71
2022/10/26 00:59:35;;;;;;;5.17;2.50;;;15.40;99.90;;;;;;5051635;28;20432;-71
2022/10/26 01:02:00;;;;;;;4.17;2.30;;;15.40;99.90;;;;;;5052173;28;20950;-70
2022/10/26 01:04:26;;;;;;;4.97;2.43;;;15.40;99.90;;;;;;5052254;28;20603;-70
2022/10/26 01:06:52;;;;;;;4.33;2.33;;;15.40;99.90;;;;;;5050361;28;20209;-71
2022/10/26 01:09:19;;;;;;;5.83;2.23;;;15.40;99.90;;;;;;5051575;28;20176;-71
2022/10/26 01:11:44;;;;;;;3.33;2.27;;;15.40;99.90;;;;;;5050377;28;20182;-72
2022/10/26 01:14:12;;;;;;;4.20;2.33;;;15.40;99.90;;;;;;5034003;28;20421;-71
2022/10/26 01:17:03;;;;;;;6.70;2.50;;;15.40;99.90;;;;;;5050364;28;20201;-70
2022/10/26 01:20:00;;;;;;;4.20;2.70;;;15.40;99.90;;;;;;5049689;28;20446;-71
2022/10/26 01:23:07;;;;;;;6.03;2.10;;;15.40;99.90;;;;;;5048928;28;20428;-71
2022/10/26 01:26:01;;;;;;;5.03;2.50;;;15.30;99.90;;;;;;5022088;28;20415;-71
2022/10/26 01:28:32;;;;;;;2.87;2.40;;;15.20;99.90;;;;;;5050210;28;20487;-71
2022/10/26 01:31:01;;;;;;;6.27;2.57;;;15.30;99.90;;;;;;5051135;28;20816;-71
2022/10/26 01:33:50;;;;;;;3.50;2.33;;;15.30;99.90;;;;;;5050973;28;20442;-71
2022/10/26 01:36:41;;;;;;;3.70;2.30;;;15.20;99.90;;;;;;5051149;28;20480;-71
2022/10/26 01:39:20;;;;;;;7.43;2.70;;;15.20;99.90;;;;;;5050704;28;20539;-71
2022/10/26 01:41:52;;;;;;;6.17;3.00;;;15.10;99.90;;;;;;5051194;28;20518;-71
2022/10/26 01:44:23;;;;;;;4.43;2.20;;;15.00;99.90;;;;;;5050715;28;20544;-72
2022/10/26 01:46:51;;;;;;;4.17;2.57;;;14.80;99.90;;;;;;5050858;28;20480;-72
2022/10/26 01:49:21;;;;;;;4.13;2.50;;;14.70;99.90;;;;;;5032565;28;20415;-72
2022/10/26 01:51:48;;;;;;;4.23;2.87;;;14.90;99.90;;;;;;5041491;28;20395;-71
2022/10/26 01:54:14;;;;;;;5.67;2.40;;;15.00;99.90;;;;;;5050974;28;20400;-72
2022/10/26 01:56:42;;;;;;;13.07;3.13;;;15.00;99.90;;;;;;5050450;28;20802;-72
2022/10/26 01:59:57;;;;;;;5.97;2.57;;;15.10;99.90;;;;;;5050931;28;20169;-71
2022/10/26 02:02:54;;;;;;;6.17;2.70;;;15.10;99.90;;;;;;5046875;28;20486;-71
2022/10/26 02:05:31;;;;;;;5.83;2.70;;;15.20;99.90;;;;;;5053204;28;20395;-71
2022/10/26 02:08:04;;;;;;;5.40;2.20;;;15.20;99.90;;;;;;5053508;28;20891;-71
2022/10/26 02:11:03;;;;;;;4.80;2.50;;;15.10;99.90;;;;;;5055364;28;20387;-71
2022/10/26 02:13:51;;;;;;;4.97;2.27;;;15.10;99.90;;;;;;5053810;28;20420;-71
2022/10/26 02:16:48;;;;;;;5.40;2.60;;;14.80;99.90;;;;;;5054793;28;20920;-72
2022/10/26 02:19:24;;;;;;;3.80;2.03;;;14.70;99.90;;;;;;4998951;28;20951;-73
2022/10/26 02:21:55;;;;;;;3.60;2.03;;;14.70;99.90;;;;;;5054764;28;20396;-73
2022/10/26 02:24:22;;;;;;;7.00;2.33;;;14.70;99.90;;;;;;5035592;28;20625;-73
2022/10/26 02:26:51;;;;;;;7.20;2.53;;;14.80;99.90;;;;;;5054710;28;20550;-70
2022/10/26 02:29:19;;;;;;;4.63;2.23;;;14.90;99.90;;;;;;5054722;28;20417;-72
2022/10/26 02:31:47;;;;;;;2.87;2.20;;;14.70;99.90;;;;;;5053154;28;20467;-73
2022/10/26 02:34:17;;;;;;;5.30;2.30;;;14.80;99.90;;;;;;5054546;28;20928;-72
2022/10/26 02:36:45;;;;;;;5.60;2.80;;;14.90;99.90;;;;;;5054585;28;20883;-71
2022/10/26 02:39:13;;;;;;;4.43;2.20;;;15.00;99.90;;;;;;5053581;28;20460;-71
2022/10/26 02:41:41;;;;;;;2.10;1.80;;;15.00;99.90;;;;;;5054386;28;20404;-71
2022/10/26 02:44:28;;;;;;;3.20;1.90;;;15.10;99.90;;;;;;5053538;28;20432;-72
2022/10/26 02:46:55;;;;;;;4.03;1.60;;;15.10;99.90;;;;;;5054555;28;20495;-71
2022/10/26 02:49:21;;;;;;;3.00;2.00;;;15.10;99.90;;;;;;5053132;28;20492;-71
2022/10/26 02:51:53;;;;;;;3.50;1.83;;;15.00;99.90;;;;;;5054508;28;20613;-71
2022/10/26 02:54:41;;;;;;;6.43;1.90;;;15.10;99.90;;;;;;5052962;28;20185;-71
2022/10/26 02:57:22;;;;;;;4.00;2.27;;;15.10;99.90;;;;;;5054683;28;20470;-71
2022/10/26 02:59:48;;;;;;;8.13;2.70;;;15.00;99.90;;;;;;5034823;28;20497;-71
2022/10/26 03:02:16;;;;;;;4.33;2.80;;;14.90;99.90;;;;;;5054426;28;20409;-71
2022/10/26 03:04:42;;;;;;;5.00;2.53;;;14.80;99.90;;;;;;5053804;28;20574;-71
2022/10/26 03:07:08;;;;;;;5.90;2.70;;;14.80;99.90;;;;;;5054364;28;20495;-71
2022/10/26 03:09:33;;;;;;;4.90;2.87;;;14.70;99.90;;;;;;5052886;28;20591;-72
2022/10/26 03:11:59;;;;;;;5.87;2.13;;;14.70;99.90;;;;;;5053710;28;20171;-72
2022/10/26 03:14:24;;;;;;;5.73;1.90;;;14.70;99.90;;;;;;5054189;28;20226;-71
2022/10/26 03:16:50;;;;;;;2.83;2.10;;;14.80;99.90;;;;;;5052632;28;20280;-71
2022/10/26 03:19:16;;;;;;;4.30;2.80;;;14.80;99.90;;;;;;5053675;28;20182;-71
2022/10/26 03:21:41;;;;;;;3.07;2.20;;;14.80;99.90;;;;;;5053113;28;20177;-72
2022/10/26 03:24:08;;;;;;;4.30;2.40;;;14.80;99.90;;;;;;5053467;28;20168;-71
2022/10/26 03:26:34;;;;;;;6.60;1.70;;;14.80;99.90;;;;;;5053228;28;20200;-70
2022/10/26 03:28:59;;;;;;;9.50;2.47;;;14.90;99.90;;;;;;5052722;28;20428;-71
2022/10/26 03:31:25;;;;;;;3.93;2.67;;;14.80;99.90;;;;;;5053202;28;20248;-71
2022/10/26 03:33:51;;;;;;;2.73;2.20;;;14.90;99.90;;;;;;5052341;28;20172;-71
2022/10/26 03:36:16;;;;;;;3.70;2.00;;;14.90;99.90;;;;;;5053837;28;20221;-71
2022/10/26 03:38:42;;;;;;;5.30;2.30;;;15.00;99.90;;;;;;5035432;28;20222;-71
2022/10/26 03:41:07;;;;;;;5.33;2.70;;;14.90;99.90;;;;;;5052254;28;20552;-71
2022/10/26 03:43:33;;;;;;;6.20;2.40;;;14.80;99.90;;;;;;5053237;28;20177;-72
2022/10/26 03:45:58;;;;;;;4.23;3.10;;;14.70;99.90;;;;;;5052101;28;20255;-72
2022/10/26 03:48:24;;;;;;;4.30;2.90;;;14.80;99.90;;;;;;5052944;28;20205;-72
2022/10/26 03:50:50;;;;;;;6.03;3.17;;;14.80;99.90;;;;;;5053189;28;20670;-72
2022/10/26 03:53:15;;;;;;;5.13;2.47;;;14.90;99.90;;;;;;5052203;28;20173;-72
2022/10/26 03:55:43;;;;;;;4.50;2.23;;;15.00;99.90;;;;;;5052677;28;20171;-72
2022/10/26 03:58:09;;;;;;;3.90;2.30;;;15.00;99.90;;;;;;5051866;28;20276;-72
2022/10/26 04:00:35;;;;;;;2.80;2.40;;;14.90;99.90;;;;;;5052869;28;20948;-71
2022/10/26 04:03:00;;;;;;;7.93;2.83;;;15.00;99.90;;;;;;5053098;28;20196;-72
2022/10/26 04:05:28;;;;;;;4.00;2.13;;;15.20;99.90;;;;;;5051715;28;20263;-71
2022/10/26 04:07:55;;;;;;;6.70;2.93;;;15.30;99.90;;;;;;5052671;28;20579;-71
2022/10/26 04:10:21;;;;;;;3.20;2.40;;;15.40;99.90;;;;;;5052686;28;20863;-70
2022/10/26 04:12:47;;;;;;;4.03;2.50;;;15.40;99.90;;;;;;5050944;28;20489;-72
2022/10/26 04:15:13;;;;;;;4.30;3.27;;;15.60;99.90;;;;;;5037924;28;20786;-71
2022/10/26 04:17:38;;;;;;;6.20;3.50;;;15.60;99.90;;;;;;5040066;28;20321;-71
2022/10/26 04:20:05;;;;;;;5.10;2.77;;;15.70;99.90;;;;;;5034585;28;20169;-71
2022/10/26 04:22:30;;;;;;;2.40;2.20;;;15.70;99.90;;;;;;5052107;28;20658;-72
2022/10/26 04:24:56;;;;;;;3.70;2.83;;;15.70;99.90;;;;;;5051179;28;20426;-71
2022/10/26 04:27:21;;;;;;;5.23;2.50;;;15.80;99.90;;;;;;5051270;28;20208;-72
2022/10/26 04:29:47;;;;;;;6.50;3.30;;;15.80;99.90;;;;;;5033580;28;20257;-71
2022/10/26 04:32:12;;;;;;;4.50;2.53;;;15.80;99.90;;;;;;5052099;28;20185;-72
2022/10/26 04:34:38;;;;;;;4.07;3.03;;;15.80;99.90;;;;;;5051131;28;20255;-71
2022/10/26 04:37:03;;;;;;;6.47;3.00;;;15.80;99.90;;;;;;5052262;28;20189;-72
2022/10/26 04:39:29;;;;;;;3.30;2.63;;;15.60;99.90;;;;;;5052011;28;20251;-71
2022/10/26 04:41:54;;;;;;;3.63;2.67;;;15.50;99.90;;;;;;5050870;28;20206;-71
2022/10/26 04:44:20;;;;;;;3.63;2.67;;;15.60;99.90;;;;;;5051985;28;20188;-71
2022/10/26 04:46:45;;;;;;;5.80;2.80;;;15.60;99.90;;;;;;5051703;28;20205;-74
2022/10/26 04:49:11;;;;;;;4.40;2.40;;;15.40;99.90;;;;;;5051204;28;20187;-71
2022/10/26 04:51:37;;;;;;;6.67;2.40;;;15.30;99.90;;;;;;5051534;28;20166;-71
2022/10/26 04:54:02;;;;;;;5.80;2.80;;;15.30;99.90;;;;;;5050794;28;20552;-72
2022/10/26 04:56:28;;;;;;;7.73;2.60;;;15.40;99.90;;;;;;5051955;28;20199;-71
2022/10/26 04:58:54;;;;;;;4.90;2.87;;;15.40;99.90;;;;;;5051026;28;20179;-72
2022/10/26 05:01:20;;;;;;;3.93;2.50;;;15.40;99.90;;;;;;5051324;28;20411;-72
2022/10/26 05:03:50;;;;;;;5.20;2.30;;;15.40;99.90;;;;;;5051201;28;20199;-72
2022/10/26 05:06:15;;;;;;;4.83;2.40;;;15.40;99.90;;;;;;5051132;28;20499;-72
2022/10/26 05:08:41;;;;;;;4.53;2.67;;;15.50;99.90;;;;;;5052129;28;20970;-72
2022/10/26 05:11:06;;;;;;;3.70;2.53;;;15.50;99.90;;;;;;5050840;28;20205;-72
2022/10/26 05:13:32;;;;;;;5.93;2.90;;;15.60;99.90;;;;;;5051454;28;20183;-72
2022/10/26 05:15:57;;;;;;;3.93;2.03;;;15.60;99.90;;;;;;5050524;28;20285;-71
2022/10/26 05:18:23;;;;;;;3.73;2.37;;;15.60;99.90;;;;;;5051153;28;20217;-71
2022/10/26 05:20:51;;;;;;;2.30;2.10;;;15.70;99.90;;;;;;5051530;28;20171;-70
2022/10/26 05:23:17;;;;;;;5.93;2.37;;;15.70;99.90;;;;;;5050472;28;20224;-72
2022/10/26 05:25:43;;;;;;;7.20;2.27;;;15.90;99.90;;;;;;5051054;28;20453;-70
2022/10/26 05:28:12;;;;;;;4.80;2.00;;;15.90;99.90;;;;;;5050579;28;20209;-72
2022/10/26 05:30:38;;;;;;;5.40;2.60;;;15.90;99.90;;;;;;5050829;28;20784;-71
2022/10/26 05:33:04;;;;;;;4.57;2.53;;;16.00;99.90;;;;;;5051596;28;20412;-71
2022/10/26 05:35:30;;;;;;;2.80;2.57;;;16.00;99.90;;;;;;5032525;28;20431;-73
2022/10/26 05:37:56;;;;;;;2.37;2.17;;;16.00;99.90;;;;;;5051700;28;20447;-71
2022/10/26 05:40:22;;;;;;;3.60;2.50;;;16.00;99.90;;;;;;5036723;28;20412;-70
2022/10/26 05:42:49;;;;;;;4.80;2.70;;;16.00;99.90;;;;;;5053918;28;20193;-71
2022/10/26 05:45:17;;;;;;;4.67;2.30;;;16.00;99.90;;;;;;5055604;28;20420;-70
2022/10/26 05:47:43;;;;;;;3.27;2.10;;;16.00;99.90;;;;;;5053744;28;20468;-71
2022/10/26 05:50:10;;;;;;;3.00;2.20;;;16.30;99.90;;;;;;5055235;28;20495;-71
2022/10/26 05:52:44;;;;;;;5.50;2.27;;;16.40;99.90;;;;;;5054906;28;20782;-71
2022/10/26 05:55:15;;;;;;;3.40;2.00;;;16.30;99.90;;;;;;5055277;28;20890;-71
2022/10/26 05:57:41;;;;;;;3.50;2.40;;;16.20;99.90;;;;;;5055739;28;20438;-71
2022/10/26 06:00:21;;;;;;;2.67;2.10;;;16.30;99.90;;;;;;5055183;28;20751;-70
2022/10/26 06:03:13;;;;;;;2.50;2.10;;;16.40;99.90;;;;;;5054795;28;20443;-71
2022/10/26 06:05:56;;;;;;;6.67;2.23;;;16.60;99.90;;;;;;5055538;28;20915;-71
2022/10/26 06:08:25;;;;;;;7.10;3.63;;;16.70;99.90;;;;;;5054802;28;20471;-71
2022/10/26 06:10:51;;;;;;;9.93;2.83;;;16.70;99.90;;;;;;5037681;28;20409;-71
2022/10/26 06:13:17;;;;;;;4.33;2.30;;;16.80;99.90;;;;;;5055174;28;20409;-71
2022/10/26 06:16:04;;;;;;;6.67;2.60;;;16.70;99.90;;;;;;5054877;28;20401;-71
2022/10/26 06:19:01;;;;;;;5.23;2.93;;;16.70;99.90;;;;;;5054475;28;20210;-72
2022/10/26 06:22:11;;;;;;;3.67;2.50;;;16.60;99.90;;;;;;5055096;28;20398;-72
2022/10/26 06:24:43;;;;;;;3.73;2.30;;;16.50;99.90;;;;;;4993811;28;20422;-72
2022/10/26 06:27:18;;;;;;;4.63;2.20;;;16.60;99.90;;;;;;5048256;28;20473;-72
2022/10/26 06:30:00;;;;;;;3.50;2.20;;;16.30;99.90;;;;;;5053906;28;20389;-73
2022/10/26 06:32:26;;;;;;;2.90;2.43;;;16.30;99.90;;;;;;5054497;28;20397;-72
2022/10/26 06:35:10;;;;;;;2.60;2.10;;;16.40;99.90;;;;;;5054958;28;20420;-71
2022/10/26 06:37:37;;;;;;;5.77;2.57;;;16.50;99.90;;;;;;5054763;28;20458;-72
2022/10/26 06:40:04;;;;;;;10.53;3.13;;;16.40;99.90;;;;;;5054832;28;20424;-72
2022/10/26 06:42:31;;;;;;;2.97;2.30;;;16.40;99.90;;;;;;5054848;28;20466;-72
2022/10/26 06:44:57;;;;;;;3.27;2.30;;;16.40;99.90;;;;;;5054408;28;20451;-71
2022/10/26 06:47:44;;;;;;;4.67;2.13;;;16.40;99.90;;;;;;5054113;28;20503;-71
2022/10/26 06:50:28;;;;;;;3.57;2.10;;;16.40;99.90;;;;;;5053550;28;20159;-72
2022/10/26 06:53:16;;;;;;;3.80;1.63;;;16.50;99.90;;;;;;5054696;28;20799;-72
2022/10/26 06:55:44;;;;;;;5.57;3.00;;;16.40;99.90;;;;;;5054386;28;20752;-72
2022/10/26 06:58:19;;;;;;;3.80;2.77;;;16.50;99.90;;;;;;5054292;28;20727;-71
2022/10/26 07:00:47;;;;;;;3.20;2.47;;;16.50;99.90;;;;;;5053625;28;20439;-72
2022/10/26 07:03:13;;;;;;;4.00;2.53;;;16.50;99.90;;;;;;5053875;28;20405;-72
2022/10/26 07:05:38;;;;;;;5.23;2.70;;;16.50;99.90;;;;;;5052779;28;20419;-72
2022/10/26 07:08:04;;;;;;;5.93;2.70;;;16.30;99.90;;;;;;5038548;28;20242;-72
2022/10/26 07:10:30;;;;;;;3.73;2.13;;;16.40;99.90;;;;;;5033974;28;20179;-70
2022/10/26 07:12:56;;;;;;;5.30;3.00;;;16.40;99.90;;;;;;5033732;28;20560;-70
2022/10/26 07:15:22;;;;;;;4.93;2.80;;;16.50;99.90;;;;;;5033388;28;20449;-71
2022/10/26 07:17:48;;;;;;;2.73;2.07;;;16.60;99.90;;;;;;5033774;28;20223;-71
2022/10/26 07:20:16;;;;;;;5.30;2.90;;;16.70;99.90;;;;;;5034130;28;20599;-72
2022/10/26 07:22:42;;;;;;;4.70;2.93;;;16.70;99.90;;;;;;5016138;28;20900;-72
2022/10/26 07:25:09;;;;;;;3.37;2.37;;;16.80;99.90;;;;;;5033779;28;20475;-71
2022/10/26 07:27:34;;;;;;;5.63;2.37;;;16.80;99.90;;;;;;5033841;28;20203;-73
2022/10/26 07:30:00;;;;;;;4.47;2.77;;;16.90;99.90;;;;;;5036691;28;20866;-73
2022/10/26 07:32:26;;;;;;;6.40;2.90;;;16.80;99.90;;;;;;5052241;28;20174;-72
2022/10/26 07:34:52;;;;;;;3.23;2.43;;;16.90;99.90;;;;;;5053786;28;20884;-72
2022/10/26 07:37:17;;;;;;;7.60;2.70;;;16.90;99.90;;;;;;5053632;28;20219;-72
2022/10/26 07:39:43;;;;;;;4.20;2.83;;;17.00;99.90;;;;;;5053668;28;20607;-73
2022/10/26 07:42:08;;;;;;;4.37;2.83;;;17.10;99.90;;;;;;5053575;28;20184;-73
2022/10/26 07:44:34;;;;;;;3.37;2.90;;;17.10;99.90;;;;;;5054031;28;20173;-72
2022/10/26 07:47:00;;;;;;;3.90;2.33;;;17.00;99.90;;;;;;5053536;28;20452;-72
2022/10/26 07:49:25;;;;;;;3.67;2.90;;;17.00;99.90;;;;;;5051549;28;20186;-72
2022/10/26 07:51:51;;;;;;;4.60;2.77;;;17.10;99.90;;;;;;5053153;28;20624;-73
2022/10/26 07:54:16;;;;;;;3.93;2.67;;;17.10;99.90;;;;;;5053120;28;20257;-74
2022/10/26 07:56:42;;;;;;;4.07;3.10;;;17.20;99.90;;;;;;5053286;28;20187;-73
2022/10/26 07:59:09;;;;;;;4.03;2.90;;;17.30;99.90;;;;;;5053227;28;20171;-73
2022/10/26 08:01:35;;;;;;;4.40;2.80;;;17.40;99.90;;;;;;5052680;28;20554;-73
2022/10/26 08:04:01;;;;;;;6.30;2.60;;;17.30;99.90;;;;;;5053319;28;20451;-71
2022/10/26 08:06:26;;;;;;;4.03;2.97;;;17.30;99.90;;;;;;5053199;28;20227;-73
2022/10/26 08:08:52;;;;;;;3.30;2.33;;;17.20;99.90;;;;;;5053115;28;20201;-73
2022/10/26 08:11:17;;;;;;;2.90;2.60;;;17.40;99.90;;;;;;5052901;28;20171;-73
2022/10/26 08:13:43;;;;;;;2.93;2.40;;;17.60;99.90;;;;;;5052857;28;20171;-73
2022/10/26 08:16:09;;;;;;;4.77;2.73;;;17.50;99.90;;;;;;5052047;28;20178;-73
2022/10/26 08:18:34;;;;;;;4.97;2.60;;;17.50;99.90;;;;;;5034287;28;20210;-73
2022/10/26 08:21:03;;;;;;;4.33;2.90;;;17.50;99.90;;;;;;5052632;28;20170;-73
2022/10/26 08:23:29;;;;;;;10.70;3.50;;;17.70;99.90;;;;;;5034991;28;20212;-72
2022/10/26 08:26:02;;;;;;;4.10;3.00;;;17.70;99.90;;;;;;5052987;28;20409;-73
2022/10/26 08:28:28;;;;;;;3.37;2.60;;;17.60;99.90;;;;;;5052244;28;20195;-72
2022/10/26 08:30:54;;;;;;;5.33;3.07;;;17.70;99.90;;;;;;5051646;28;20421;-73
2022/10/26 08:33:20;;;;;;;5.20;2.53;;;17.80;99.90;;;;;;5052418;28;20405;-74
2022/10/26 08:35:45;;;;;;;5.27;2.47;;;17.90;99.90;;;;;;5052516;28;20413;-73
2022/10/26 08:38:11;;;;;;;4.13;2.33;;;18.00;99.90;;;;;;5052062;28;20201;-73
2022/10/26 08:40:39;;;;;;;4.80;2.57;;;18.10;99.90;;;;;;5052223;28;20166;-72
2022/10/26 08:43:10;;;;;;;5.50;2.87;;;18.20;99.90;;;;;;5052221;28;20178;-74
2022/10/26 08:45:40;;;;;;;4.83;2.70;;;18.20;99.90;;;;;;5051849;28;20410;-74
2022/10/26 08:48:12;;;;;;;3.67;2.90;;;18.20;99.90;;;;;;5051905;28;20538;-74
2022/10/26 08:50:47;;;;;;;4.70;2.83;;;18.30;99.90;;;;;;5052240;28;20420;-75
2022/10/26 08:53:31;;;;;;;3.80;2.77;;;18.10;99.90;;;;;;5052212;28;20719;-73
2022/10/26 08:56:05;;;;;;;4.17;2.57;;;18.20;99.90;;;;;;5051963;28;20389;-72
2022/10/26 08:58:44;;;;;;;6.93;3.30;;;18.40;99.90;;;;;;5051688;28;20972;-74
2022/10/26 09:01:10;;;;;;;8.70;3.37;;;18.20;99.90;;;;;;5051285;28;20416;-73
2022/10/26 09:03:35;;;;;;;4.13;2.77;;;18.10;99.90;;;;;;5034289;28;20496;-73
2022/10/26 09:06:13;;;;;;;3.57;2.37;;;18.20;99.90;;;;;;5052732;28;20236;-72
2022/10/26 09:08:44;;;;;;;5.13;2.83;;;18.30;99.90;;;;;;5052389;28;20202;-72
2022/10/26 09:11:24;;;;;;;3.53;2.70;;;18.50;99.90;;;;;;5052094;28;20401;-73
2022/10/26 09:14:14;;;;;;;5.30;2.30;;;18.50;99.90;;;;;;5055987;28;20871;-73
2022/10/26 09:16:50;;;;;;;4.43;3.10;;;18.60;99.90;;;;;;5058049;28;20799;-71
2022/10/26 09:19:26;;;;;;;8.83;3.07;;;18.80;99.90;;;;;;5059030;28;20482;-72
2022/10/26 09:22:26;;;;;;;4.63;2.73;;;18.80;99.90;;;;;;5059016;28;20393;-72
2022/10/26 09:24:54;;;;;;;5.00;2.60;;;18.90;99.90;;;;;;4997026;28;20423;-73
2022/10/26 09:27:27;;;;;;;5.90;2.40;;;19.10;99.90;;;;;;5046376;28;20495;-72
2022/10/26 09:29:59;;;;;;;4.33;2.87;;;19.20;99.90;;;;;;5057628;28;20789;-74
2022/10/26 09:32:32;;;;;;;4.73;2.83;;;19.20;99.90;;;;;;5058342;28;20389;-73
2022/10/26 09:35:03;;;;;;;6.20;2.70;;;19.40;99.90;;;;;;5058432;28;20415;-73
2022/10/26 09:37:35;;;;;;;7.53;2.80;;;19.50;99.90;;;;;;5058520;28;20421;-72
2022/10/26 09:40:12;;;;;;;6.17;2.73;;;19.30;99.90;;;;;;5058904;28;20512;-73
2022/10/26 09:43:03;;;;;;;4.60;3.07;;;19.20;99.90;;;;;;5059064;28;20397;-73
2022/10/26 09:45:33;;;;;;;4.70;2.10;;;19.30;99.90;;;;;;5059310;28;20386;-73
2022/10/26 09:48:15;;;;;;;7.33;2.30;;;19.50;99.90;;;;;;5058376;28;20452;-72
2022/10/26 09:50:44;;;;;;;5.47;2.80;;;19.40;99.90;;;;;;5058494;28;20396;-73
2022/10/26 09:53:10;;;;;;;7.07;2.43;;;19.60;99.90;;;;;;5058444;28;20489;-73
2022/10/26 09:55:45;;;;;;;8.33;2.70;;;19.70;99.90;;;;;;5038326;28;20899;-73
2022/10/26 09:58:19;;;;;;;6.97;2.80;;;20.10;99.90;;;;;;5053595;28;20668;-72
2022/10/26 10:00:45;;;;;;;5.93;2.53;;;20.60;99.90;;;;;;5051823;28;20428;-72
2022/10/26 10:03:19;;;;;;;4.47;2.43;;;20.60;99.90;;;;;;5058099;28;20471;-71
2022/10/26 10:05:45;;;;;;;4.67;2.73;;;20.90;99.90;;;;;;5058407;28;20418;-72
2022/10/26 10:08:26;;;;;;;5.37;2.43;;;20.90;99.90;;;;;;5057840;28;20452;-71
2022/10/26 10:11:14;;;;;;;4.00;2.07;;;21.10;99.90;;;;;;5058108;28;20147;-72
2022/10/26 10:13:42;;;;;;;6.70;2.60;;;21.20;99.90;;;;;;5057913;28;20407;-71
2022/10/26 10:16:12;;;;;;;4.10;2.30;;;21.20;99.90;;;;;;5057794;28;20420;-72
2022/10/26 10:18:40;;;;;;;6.63;2.73;;;21.00;99.90;;;;;;5057796;28;20428;-72
2022/10/26 10:21:07;;;;;;;4.63;2.70;;;21.20;99.90;;;;;;5058085;28;20748;-72
2022/10/26 10:23:47;;;;;;;4.30;2.30;;;21.40;99.90;;;;;;5058446;28;20488;-73
2022/10/26 10:26:13;;;;;;;7.07;4.03;;;21.50;99.90;;;;;;5053876;28;20389;-72
2022/10/26 10:28:42;;;;;;;8.90;2.83;;;21.70;99.90;;;;;;5054760;28;20457;-71
2022/10/26 10:31:41;;;;;;;5.77;2.57;;;21.70;99.90;;;;;;5054441;28;20185;-72
2022/10/26 10:34:16;;;;;;;6.23;2.87;;;21.70;99.90;;;;;;5021663;28;20456;-72
2022/10/26 10:36:42;;;;;;;5.77;2.50;;;21.90;99.90;;;;;;5054774;28;20507;-72
2022/10/26 10:39:24;;;;;;;5.70;2.83;;;21.80;99.90;;;;;;5036730;28;21007;-71
2022/10/26 10:41:50;;;;;;;3.80;2.43;;;22.10;99.90;;;;;;5054734;28;20173;-72
2022/10/26 10:44:24;;;;;;;4.07;2.07;;;22.20;99.90;;;;;;5054741;28;20804;-72
2022/10/26 10:46:49;;;;;;;5.57;2.97;;;22.60;99.90;;;;;;5054510;28;20242;-73
2022/10/26 10:49:26;;;;;;;5.33;3.17;;;22.40;99.90;;;;;;5036741;28;20456;-71
2022/10/26 10:51:54;;;;;;;3.53;1.73;;;22.30;99.90;;;;;;5054556;28;20162;-71
2022/10/26 10:54:40;;;;;;;5.60;2.80;;;22.00;99.90;;;;;;5054720;28;20413;-72
2022/10/26 10:57:30;;;;;;;5.40;2.50;;;22.40;99.90;;;;;;5054060;28;21007;-72
2022/10/26 11:00:03;;;;;;;3.13;2.30;;;22.90;99.90;;;;;;5054026;28;20404;-72
2022/10/26 11:02:56;;;;;;;3.60;1.70;;;23.10;99.90;;;;;;5054293;28;20489;-72
2022/10/26 11:05:25;;;;;;;6.37;2.53;;;23.10;99.90;;;;;;5054948;28;20429;-72
2022/10/26 11:08:07;;;;;;;4.90;2.17;;;24.00;99.90;;;;;;5054225;28;20468;-72
2022/10/26 11:10:40;;;;;;;4.40;2.40;;;25.50;99.90;;;;;;5036204;28;20402;-73
2022/10/26 11:13:15;;;;;;;6.90;2.60;;;26.70;99.90;;;;;;5054047;28;20409;-73
2022/10/26 11:15:43;;;;;;;3.97;2.83;;;28.90;98.60;;;;;;5053924;28;20443;-73
2022/10/26 11:18:18;;;;;;;4.83;2.77;;;28.60;96.70;;;;;;5053591;28;20974;-73
2022/10/26 11:20:56;;;;;;;2.80;2.20;;;27.50;97.80;;;;;;5054317;28;20408;-73
2022/10/26 11:23:31;;;;;;;7.03;3.57;;;26.10;99.10;;;;;;5054338;28;20389;-73
2022/10/26 11:26:03;;;;;;;4.63;2.40;;;24.80;99.90;;;;;;5054054;28;20452;-73
2022/10/26 11:29:10;;;;;;;7.03;2.90;;;24.00;99.90;;;;;;5053851;28;20510;-73
2022/10/26 11:31:48;;;;;;;5.13;2.50;;;23.60;99.90;;;;;;5053282;28;20521;-72
2022/10/26 11:34:25;;;;;;;5.77;2.87;;;23.90;99.90;;;;;;5054069;28;20386;-72
2022/10/26 11:37:19;;;;;;;6.00;2.60;;;24.20;99.90;;;;;;5053246;28;20429;-72
2022/10/26 11:40:00;;;;;;;3.37;2.70;;;24.50;99.90;;;;;;5053578;28;20390;-73
2022/10/26 11:42:43;;;;;;;4.57;2.63;;;24.60;99.90;;;;;;5053979;28;20390;-72
2022/10/26 11:45:18;;;;;;;4.17;2.40;;;24.20;99.90;;;;;;5053646;28;20473;-74
2022/10/26 11:48:11;;;;;;;3.83;2.70;;;24.00;99.90;;;;;;5053055;28;20452;-74
2022/10/26 11:50:41;;;;;;;3.63;2.20;;;24.10;99.90;;;;;;5053127;28;20405;-72
2022/10/26 11:53:16;;;;;;;4.73;2.47;;;24.50;99.90;;;;;;5053006;28;20384;-72
2022/10/26 11:55:49;;;;;;;5.93;2.37;;;24.60;99.90;;;;;;5053393;28;20416;-72
2022/10/26 11:58:15;;;;;;;5.20;2.37;;;23.70;99.90;;;;;;5053365;28;20891;-72
2022/10/26 12:00:51;;;;;;;9.30;2.30;;;23.70;99.90;;;;;;5052451;28;20500;-73
2022/10/26 12:03:22;;;;;;;7.03;2.43;;;24.10;99.90;;;;;;5053237;28;20382;-73
2022/10/26 12:05:50;;;;;;;5.27;2.47;;;24.60;99.90;;;;;;5053385;28;20392;-72
2022/10/26 12:08:29;;;;;;;6.37;2.53;;;26.60;99.90;;;;;;5053023;28;20490;-71
2022/10/26 12:11:06;;;;;;;5.60;2.33;;;26.60;99.60;;;;;;5053000;28;20393;-71
2022/10/26 12:13:46;;;;;;;4.13;2.00;;;26.10;99.90;;;;;;5035082;28;20420;-71
2022/10/26 12:16:41;;;;;;;6.40;2.70;;;25.50;99.90;;;;;;5052305;28;20468;-71
2022/10/26 12:19:19;;;;;;;6.40;2.40;;;25.50;99.90;;;;;;5039849;28;20452;-71
2022/10/26 12:21:47;;;;;;;4.57;2.47;;;25.20;99.90;;;;;;5053160;28;20389;-72
2022/10/26 12:24:22;;;;;;;4.50;2.50;;;25.00;99.90;;;;;;5053912;28;20401;-71
2022/10/26 12:26:54;;;;;;;4.73;1.90;;;24.80;99.90;;;;;;5052793;28;20460;-72
2022/10/26 12:29:30;;;;;;;3.30;1.93;;;25.10;99.90;;;;;;5052315;28;20496;-72
2022/10/26 12:31:56;;;;;;;3.60;1.90;;;25.20;99.90;;;;;;5051969;28;20743;-73
2022/10/26 12:34:43;;;;;;;5.27;2.33;;;25.40;99.90;;;;;;5053708;28;20401;-71
2022/10/26 12:37:21;;;;;;;4.10;2.30;;;25.10;99.90;;;;;;5052338;28;20440;-71
2022/10/26 12:39:46;;;;;;;5.67;2.33;;;25.30;99.90;;;;;;5052359;28;20416;-72
2022/10/26 12:42:15;;;;;;;4.90;2.37;;;24.70;99.90;;;;;;5052805;28;20923;-71
2022/10/26 12:44:44;;;;;;;6.20;2.50;;;24.70;99.90;;;;;;5052308;28;20181;-74
2022/10/26 12:47:29;;;;;;;3.87;2.10;;;24.60;99.90;;;;;;5051570;28;20455;-74
2022/10/26 12:50:07;;;;;;;3.87;2.77;;;24.50;99.90;;;;;;5050726;28;20432;-74
2022/10/26 12:52:39;;;;;;;5.40;3.00;;;24.30;99.90;;;;;;5042201;28;20412;-74
2022/10/26 12:55:29;;;;;;;6.60;2.50;;;24.10;99.90;;;;;;5052068;28;20906;-75
2022/10/26 12:58:07;;;;;;;5.33;2.90;;;24.10;99.90;;;;;;5052339;28;20417;-74
2022/10/26 13:00:38;;;;;;;4.90;2.07;;;24.20;99.90;;;;;;5034356;28;20420;-72
2022/10/26 13:03:22;;;;;;;6.00;2.37;;;24.20;99.90;;;;;;5052263;28;20477;-73
2022/10/26 13:06:19;;;;;;;2.50;2.20;;;24.70;99.90;;;;;;5052779;28;20425;-74
2022/10/26 13:08:54;;;;;;;5.83;1.73;;;25.40;99.90;;;;;;5052347;28;21043;-71